createdAt,value
2022-10-04T00:05:17.070Z,18.50
2022-10-04T00:15:26.335Z,18.40
2022-10-04T00:25:38.303Z,18.20
2022-10-04T00:35:51.791Z,18.20
2022-10-04T00:45:59.121Z,18.30
2022-10-04T00:56:06.942Z,18.20
2022-10-04T01:06:13.359Z,18.30
2022-10-04T01:16:20.979Z,18.30
2022-10-04T01:26:41.204Z,18.30
2022-10-04T01:36:47.583Z,18.60
2022-10-04T01:46:56.216Z,18.80
2022-10-04T01:57:04.709Z,19.00
2022-10-04T02:07:16.561Z,19.00
2022-10-04T02:17:23.251Z,19.00
2022-10-04T02:27:31.522Z,19.10
2022-10-04T02:37:35.329Z,19.20
2022-10-04T02:47:47.016Z,19.20
2022-10-04T02:57:52.835Z,19.20
2022-10-04T03:07:57.949Z,19.00
2022-10-04T03:18:02.470Z,18.90
2022-10-04T03:28:07.879Z,18.80
2022-10-04T03:38:14.163Z,18.80
2022-10-04T03:48:29.190Z,18.70
2022-10-04T03:58:33.366Z,18.60
2022-10-04T04:08:42.819Z,18.50
2022-10-04T04:18:47.895Z,18.40
2022-10-04T04:28:55.855Z,18.30
2022-10-04T04:39:27.581Z,18.20
2022-10-04T04:49:33.073Z,18.10
2022-10-04T04:59:37.450Z,18.10
2022-10-04T05:09:42.527Z,17.90
2022-10-04T05:19:46.589Z,17.80
2022-10-04T05:30:03.912Z,17.90
2022-10-04T05:40:25.343Z,18.10
2022-10-04T05:50:35.560Z,18.00
2022-10-04T06:00:47.040Z,18.10
2022-10-04T06:11:16.871Z,18.20
2022-10-04T06:21:22.939Z,18.00
2022-10-04T06:32:05.671Z,18.00
2022-10-04T06:42:34.232Z,18.20
2022-10-04T06:53:05.180Z,18.50
2022-10-04T07:03:18.085Z,19.00
2022-10-04T07:13:34.032Z,19.50
2022-10-04T07:23:45.081Z,20.00
2022-10-04T07:33:53.133Z,20.40
2022-10-04T07:44:01.636Z,20.80
2022-10-04T07:54:17.637Z,21.10
2022-10-04T08:04:33.360Z,21.50
2022-10-04T08:14:55.881Z,22.10
2022-10-04T08:25:07.447Z,22.40
2022-10-04T08:35:36.656Z,22.50
2022-10-04T08:46:19.727Z,22.60
2022-10-04T08:56:43.778Z,22.70
2022-10-04T09:06:57.709Z,22.70
2022-10-04T09:17:22.253Z,22.90
2022-10-04T09:28:00.096Z,23.00
2022-10-04T09:38:40.937Z,23.30
2022-10-04T09:48:56.472Z,23.40
2022-10-04T09:59:39.017Z,23.80
2022-10-04T10:10:07.889Z,23.90
2022-10-04T10:20:45.733Z,24.00
2022-10-04T10:31:06.166Z,24.80
2022-10-04T10:41:43.532Z,25.00
2022-10-04T10:52:12.053Z,25.30
2022-10-04T11:02:49.254Z,25.50
2022-10-04T11:13:21.500Z,26.50
2022-10-04T11:24:09.499Z,27.00
2022-10-04T11:34:39.925Z,27.10
2022-10-04T11:45:25.311Z,27.40
2022-10-04T11:55:58.675Z,27.80
2022-10-04T12:06:18.310Z,27.90
2022-10-04T12:16:57.931Z,27.80
2022-10-04T12:27:52.734Z,27.90
2022-10-04T12:38:37.844Z,27.60
2022-10-04T12:48:58.322Z,27.90
2022-10-04T12:59:31.881Z,28.80
2022-10-04T13:10:12.138Z,28.60
2022-10-04T13:20:34.487Z,29.20
2022-10-04T13:30:48.051Z,29.90
2022-10-04T13:41:06.352Z,28.80
2022-10-04T13:51:29.865Z,29.10
2022-10-04T14:02:10.576Z,28.40
2022-10-04T14:12:43.047Z,29.30
2022-10-04T14:23:01.615Z,28.40
2022-10-04T14:33:40.348Z,29.80
2022-10-04T14:44:28.730Z,29.70
2022-10-04T14:54:43.959Z,29.40
2022-10-04T15:05:10.527Z,30.00
2022-10-04T15:15:42.713Z,29.60
2022-10-04T15:25:49.005Z,29.70
2022-10-04T15:36:12.251Z,28.90
2022-10-04T15:46:48.292Z,27.40
2022-10-04T15:56:56.441Z,27.00
2022-10-04T16:07:15.210Z,26.00
2022-10-04T16:17:45.645Z,24.60
2022-10-04T16:28:08.411Z,24.20
2022-10-04T16:38:26.023Z,24.20
2022-10-04T16:48:40.374Z,23.70
2022-10-04T16:58:50.338Z,23.60
2022-10-04T17:09:12.455Z,23.30
2022-10-04T17:19:34.221Z,23.00
2022-10-04T17:30:02.693Z,22.90
2022-10-04T17:40:28.882Z,22.70
2022-10-04T17:50:59.588Z,22.70
2022-10-04T18:01:08.106Z,22.50
2022-10-04T18:11:24.349Z,22.50
2022-10-04T18:21:29.959Z,22.20
2022-10-04T18:31:44.008Z,21.90
2022-10-04T18:42:03.274Z,21.00
2022-10-04T18:52:21.365Z,20.80
2022-10-04T19:02:35.123Z,20.50
2022-10-04T19:12:49.765Z,20.50
2022-10-04T19:23:02.971Z,20.20
2022-10-04T19:33:18.743Z,20.10
2022-10-04T19:43:34.146Z,19.90
2022-10-04T19:53:44.737Z,19.80
2022-10-04T20:04:08.812Z,19.60
2022-10-04T20:14:54.977Z,19.40
2022-10-04T20:25:00.126Z,19.20
2022-10-04T20:35:06.116Z,19.10
2022-10-04T20:45:28.808Z,19.20
2022-10-04T20:55:35.045Z,19.10
2022-10-04T21:05:41.041Z,18.90
2022-10-04T21:15:57.034Z,18.80
2022-10-04T21:26:23.282Z,18.80
2022-10-04T21:36:26.909Z,18.80
2022-10-04T21:46:32.256Z,18.80
2022-10-04T21:56:36.183Z,19.10
2022-10-04T22:06:41.434Z,19.00
2022-10-04T22:16:45.585Z,18.90
2022-10-04T22:26:50.905Z,18.80
2022-10-04T22:36:55.093Z,18.80
2022-10-04T22:47:02.505Z,18.80
2022-10-04T22:57:06.099Z,19.10
2022-10-04T23:07:11.229Z,19.10
2022-10-04T23:17:23.764Z,19.00
2022-10-04T23:27:30.098Z,19.10
2022-10-04T23:37:34.396Z,18.90
2022-10-04T23:47:39.907Z,18.70
2022-10-04T23:57:43.724Z,18.50
